createdAt,value
2022-07-31T00:01:49.598Z,99105.94
2022-07-31T00:04:21.494Z,99107.56
2022-07-31T00:06:50.835Z,99107.78
2022-07-31T00:09:52.541Z,99114.22
2022-07-31T00:12:09.728Z,99110.72
2022-07-31T00:14:39.323Z,99111.78
2022-07-31T00:17:08.729Z,99114.75
2022-07-31T00:19:41.633Z,99106.88
2022-07-31T00:22:12.596Z,99106.78
2022-07-31T00:24:42.103Z,99113.44
2022-07-31T00:27:11.520Z,99104.53
2022-07-31T00:29:41.179Z,99109.59
2022-07-31T00:32:11.521Z,99108.22
2022-07-31T00:34:43.456Z,99106.91
2022-07-31T00:37:12.978Z,99104.19
2022-07-31T00:39:42.292Z,99109.25
2022-07-31T00:42:19.533Z,99102.94
2022-07-31T00:44:49.153Z,99106.88
2022-07-31T00:47:18.762Z,99101.50
2022-07-31T00:49:56.366Z,99104.75
2022-07-31T00:52:26.022Z,99105.84
2022-07-31T00:54:55.458Z,99098.84
2022-07-31T00:57:24.826Z,99098.03
2022-07-31T00:59:54.142Z,99098.34
2022-07-31T01:02:23.993Z,99096.66
2022-07-31T01:04:55.914Z,99099.31
2022-07-31T01:07:25.982Z,99103.03
2022-07-31T01:09:56.472Z,99107.69
2022-07-31T01:12:30.074Z,99108.66
2022-07-31T01:15:01.664Z,99105.88
2022-07-31T01:17:33.207Z,99104.72
2022-07-31T01:20:05.801Z,99102.50
2022-07-31T01:22:45.660Z,99101.97
2022-07-31T01:25:19.891Z,99095.72
2022-07-31T01:28:07.524Z,99092.06
2022-07-31T01:30:42.293Z,99087.63
2022-07-31T01:33:13.451Z,99088.66
2022-07-31T01:35:44.922Z,99087.53
2022-07-31T01:38:16.903Z,99090.13
2022-07-31T01:40:47.572Z,99086.38
2022-07-31T01:43:19.029Z,99083.41
2022-07-31T01:45:53.983Z,99086.59
2022-07-31T01:48:23.631Z,99083.84
2022-07-31T01:50:55.607Z,99082.72
2022-07-31T01:53:26.882Z,99082.09
2022-07-31T01:56:02.735Z,99091.72
2022-07-31T01:58:37.400Z,99087.91
2022-07-31T02:01:15.766Z,99086.78
2022-07-31T02:03:46.842Z,99089.53
2022-07-31T02:06:21.670Z,99081.97
2022-07-31T02:08:52.799Z,99091.84
2022-07-31T02:11:23.139Z,99085.91
2022-07-31T02:13:54.062Z,99074.91
2022-07-31T02:16:27.544Z,99069.25
2022-07-31T02:19:06.691Z,99070.44
2022-07-31T02:21:37.421Z,99077.34
2022-07-31T02:24:08.080Z,99072.00
2022-07-31T02:26:38.039Z,99076.28
2022-07-31T02:29:19.703Z,99073.28
2022-07-31T02:32:02.917Z,99071.66
2022-07-31T02:34:33.755Z,99070.06
2022-07-31T02:37:03.890Z,99070.28
2022-07-31T02:39:34.852Z,99067.81
2022-07-31T02:42:06.411Z,99058.41
2022-07-31T02:44:36.329Z,99063.31
2022-07-31T02:47:09.110Z,99068.41
2022-07-31T02:49:38.539Z,99062.75
2022-07-31T02:52:08.525Z,99061.44
2022-07-31T02:54:40.695Z,99055.84
2022-07-31T02:57:10.735Z,99059.22
2022-07-31T02:59:40.395Z,99056.53
2022-07-31T03:02:12.564Z,99059.81
2022-07-31T03:04:45.208Z,99061.09
2022-07-31T03:07:14.914Z,99055.84
2022-07-31T03:09:44.272Z,99057.75
2022-07-31T03:12:32.253Z,99060.50
2022-07-31T03:15:02.434Z,99055.47
2022-07-31T03:17:40.769Z,99061.63
2022-07-31T03:20:13.800Z,99052.47
2022-07-31T03:22:43.366Z,99068.41
2022-07-31T03:25:20.204Z,99059.22
2022-07-31T03:27:55.053Z,99056.97
2022-07-31T03:30:26.590Z,99051.19
2022-07-31T03:33:03.397Z,99052.56
2022-07-31T03:35:39.267Z,99053.38
2022-07-31T03:38:39.713Z,99055.09
2022-07-31T03:41:05.554Z,99044.78
2022-07-31T03:43:47.286Z,99047.47
2022-07-31T03:46:19.804Z,99045.59
2022-07-31T03:48:53.102Z,99051.34
2022-07-31T03:51:23.962Z,99048.75
2022-07-31T03:53:54.062Z,99057.34
2022-07-31T03:56:59.695Z,99056.00
2022-07-31T03:59:39.875Z,99055.94
2022-07-31T04:02:18.675Z,99059.81
2022-07-31T04:04:54.650Z,99061.44
2022-07-31T04:07:24.292Z,99059.38
2022-07-31T04:09:54.141Z,99056.25
2022-07-31T04:12:23.473Z,99055.56
2022-07-31T04:14:53.368Z,99056.06
2022-07-31T04:17:22.674Z,99048.25
2022-07-31T04:19:54.656Z,99049.94
2022-07-31T04:22:24.167Z,99042.59
2022-07-31T04:24:53.546Z,99055.63
2022-07-31T04:27:45.665Z,99053.28
2022-07-31T04:30:17.589Z,99058.41
2022-07-31T04:32:47.792Z,99060.66
2022-07-31T04:35:24.172Z,99050.88
2022-07-31T04:37:53.558Z,99052.50
2022-07-31T04:40:26.374Z,99053.75
2022-07-31T04:42:56.437Z,99051.00
2022-07-31T04:45:25.771Z,99056.69
2022-07-31T04:47:55.816Z,99057.38
2022-07-31T04:50:27.714Z,99064.56
2022-07-31T04:53:01.326Z,99063.31
2022-07-31T04:55:36.214Z,99057.38
2022-07-31T04:58:05.776Z,99061.47
2022-07-31T05:00:35.149Z,99072.00
2022-07-31T05:03:05.901Z,99065.63
2022-07-31T05:05:37.862Z,99069.44
2022-07-31T05:08:07.268Z,99061.88
2022-07-31T05:10:57.648Z,99069.81
2022-07-31T05:13:27.076Z,99070.19
2022-07-31T05:15:56.883Z,99070.25
2022-07-31T05:18:26.304Z,99062.34
2022-07-31T05:21:17.435Z,99066.34
2022-07-31T05:24:05.002Z,99078.75
2022-07-31T05:26:46.230Z,99067.53
2022-07-31T05:29:15.540Z,99070.66
2022-07-31T05:32:00.265Z,99073.06
2022-07-31T05:34:32.000Z,99070.69
2022-07-31T05:37:04.529Z,99063.44
2022-07-31T05:39:35.656Z,99056.72
2022-07-31T05:42:23.625Z,99052.72
2022-07-31T05:45:01.979Z,99058.41
2022-07-31T05:47:40.067Z,99059.88
2022-07-31T05:50:10.763Z,99054.94
2022-07-31T05:52:43.193Z,99055.78
2022-07-31T05:55:23.482Z,99050.09
2022-07-31T05:58:16.862Z,99061.16
2022-07-31T06:00:47.306Z,99059.28
2022-07-31T06:03:16.826Z,99054.97
2022-07-31T06:05:55.808Z,99051.72
2022-07-31T06:08:29.198Z,99056.03
2022-07-31T06:10:59.272Z,99063.38
2022-07-31T06:13:30.271Z,99067.22
2022-07-31T06:16:14.056Z,99063.81
2022-07-31T06:18:44.250Z,99064.19
2022-07-31T06:23:44.778Z,99061.22
2022-07-31T06:26:40.826Z,99059.97
2022-07-31T06:29:11.555Z,99068.41
2022-07-31T06:31:40.930Z,99066.81
2022-07-31T06:34:11.669Z,99070.34
2022-07-31T06:36:43.954Z,99073.44
2022-07-31T06:39:20.019Z,99074.13
2022-07-31T06:42:25.497Z,99069.31
2022-07-31T06:45:48.533Z,99065.34
2022-07-31T06:48:42.643Z,99075.91
2022-07-31T06:51:30.292Z,99064.84
2022-07-31T06:54:00.270Z,99063.75
2022-07-31T06:56:32.301Z,99069.41
2022-07-31T06:59:01.717Z,99068.09
2022-07-31T07:01:31.675Z,99069.16
2022-07-31T07:04:01.038Z,99070.78
2022-07-31T07:06:30.538Z,99072.94
2022-07-31T07:09:01.063Z,99058.13
2022-07-31T07:11:35.500Z,99062.69
2022-07-31T07:14:04.936Z,99060.00
2022-07-31T07:16:34.259Z,99056.50
2022-07-31T07:19:03.608Z,99063.75
2022-07-31T07:21:32.912Z,99059.69
2022-07-31T07:24:02.415Z,99045.13
2022-07-31T07:26:54.580Z,99048.63
2022-07-31T07:29:24.559Z,99046.47
2022-07-31T07:31:54.712Z,99043.47
2022-07-31T07:34:24.519Z,99042.06
2022-07-31T07:36:53.923Z,99048.25
2022-07-31T07:39:26.350Z,99034.41
2022-07-31T07:41:58.319Z,99034.13
2022-07-31T07:44:29.589Z,99038.41
2022-07-31T07:46:58.944Z,99042.38
2022-07-31T07:49:30.422Z,99034.28
2022-07-31T07:52:20.082Z,99035.28
2022-07-31T07:55:18.203Z,99030.16
2022-07-31T07:58:12.196Z,99023.97
2022-07-31T08:01:00.373Z,99029.75
2022-07-31T08:03:48.262Z,99023.16
2022-07-31T08:06:19.236Z,99013.75
2022-07-31T08:08:48.582Z,99004.75
2022-07-31T08:11:46.805Z,99005.34
2022-07-31T08:14:27.351Z,99005.91
2022-07-31T08:17:19.458Z,98996.38
2022-07-31T08:19:51.400Z,99000.94
2022-07-31T08:22:21.622Z,99001.16
2022-07-31T08:24:51.019Z,98996.19
2022-07-31T08:27:39.604Z,98994.56
2022-07-31T08:30:13.743Z,98990.16
2022-07-31T08:32:43.093Z,98990.69
2022-07-31T08:35:12.523Z,98988.34
2022-07-31T08:37:57.525Z,98992.34
2022-07-31T08:40:42.710Z,98977.78
2022-07-31T08:44:00.863Z,98968.00
2022-07-31T08:46:08.044Z,98981.56
2022-07-31T08:48:42.694Z,98969.53
2022-07-31T08:51:14.138Z,98975.16
2022-07-31T08:54:02.098Z,98980.41
2022-07-31T08:56:31.509Z,98979.19
2022-07-31T08:59:03.293Z,98970.34
2022-07-31T09:01:35.614Z,98975.06
2022-07-31T09:04:05.644Z,98966.94
2022-07-31T09:06:37.644Z,98974.56
2022-07-31T09:09:08.065Z,98966.31
2022-07-31T09:11:51.243Z,98967.94
2022-07-31T09:14:40.609Z,98967.13
2022-07-31T09:17:15.857Z,98975.06
2022-07-31T09:19:52.719Z,98965.72
2022-07-31T09:22:32.092Z,98965.53
2022-07-31T09:25:12.204Z,98963.81
2022-07-31T09:27:42.350Z,98952.59
2022-07-31T09:30:13.002Z,98962.41
2022-07-31T09:32:57.406Z,98951.00
2022-07-31T09:35:50.674Z,98951.09
2022-07-31T09:38:20.647Z,98948.84
2022-07-31T09:41:26.814Z,98951.19
2022-07-31T09:44:10.008Z,98937.22
2022-07-31T09:46:44.557Z,98943.91
2022-07-31T09:49:16.631Z,98938.16
2022-07-31T09:51:49.805Z,98921.81
2022-07-31T09:54:23.845Z,98939.59
2022-07-31T09:57:12.484Z,98927.97
2022-07-31T09:59:47.987Z,98923.22
2022-07-31T10:02:18.715Z,98932.84
2022-07-31T10:04:53.346Z,98920.84
2022-07-31T10:07:32.623Z,98926.78
2022-07-31T10:10:13.065Z,98921.66
2022-07-31T10:12:56.956Z,98929.59
2022-07-31T10:15:29.008Z,98922.41
2022-07-31T10:18:18.502Z,98930.56
2022-07-31T10:21:28.388Z,98917.66
2022-07-31T10:24:12.633Z,98912.16
2022-07-31T10:27:00.826Z,98915.72
2022-07-31T10:29:34.970Z,98907.31
2022-07-31T10:32:08.071Z,98917.13
2022-07-31T10:34:41.262Z,98923.31
2022-07-31T10:37:16.164Z,98909.41
2022-07-31T10:40:09.512Z,98902.44
2022-07-31T10:42:46.550Z,98902.25
2022-07-31T10:45:17.510Z,98902.56
2022-07-31T10:47:58.603Z,98892.59
2022-07-31T10:50:46.631Z,98884.63
2022-07-31T10:53:50.258Z,98873.06
2022-07-31T10:56:43.394Z,98877.56
2022-07-31T10:59:32.984Z,98882.06
2022-07-31T11:02:29.881Z,98871.00
2022-07-31T11:05:14.117Z,98871.81
2022-07-31T11:08:21.580Z,98870.53
2022-07-31T11:11:03.580Z,98871.34
2022-07-31T11:13:55.418Z,98868.16
2022-07-31T11:16:52.322Z,98869.59
2022-07-31T11:19:41.371Z,98872.47
2022-07-31T11:22:31.789Z,98870.25
2022-07-31T11:25:02.641Z,98861.28
2022-07-31T11:27:34.983Z,98868.53
2022-07-31T11:30:13.169Z,98864.81
2022-07-31T11:32:42.937Z,98865.13
2022-07-31T11:35:12.229Z,98855.19
2022-07-31T11:37:46.084Z,98855.50
2022-07-31T11:40:16.355Z,98852.78
2022-07-31T11:43:04.704Z,98844.63
2022-07-31T11:45:48.249Z,98834.66
2022-07-31T11:48:19.255Z,98836.44
2022-07-31T11:50:49.177Z,98822.94
2022-07-31T11:53:19.211Z,98831.59
2022-07-31T11:55:52.638Z,98820.84
2022-07-31T11:58:25.748Z,98814.56
2022-07-31T12:00:55.951Z,98805.41
2022-07-31T12:03:27.676Z,98809.63
2022-07-31T12:05:57.094Z,98797.75
2022-07-31T12:08:27.511Z,98804.97
2022-07-31T12:11:00.069Z,98812.06
2022-07-31T12:13:32.791Z,98805.00
2022-07-31T12:16:03.257Z,98802.75
2022-07-31T12:18:33.498Z,98803.69
2022-07-31T12:21:03.790Z,98799.38
2022-07-31T12:23:42.149Z,98789.59
2022-07-31T12:26:13.468Z,98798.09
2022-07-31T12:28:45.492Z,98794.72
2022-07-31T12:31:14.840Z,98789.25
2022-07-31T12:33:45.715Z,98778.22
2022-07-31T12:36:16.257Z,98790.94
2022-07-31T12:38:48.981Z,98771.69
2022-07-31T12:41:19.116Z,98779.94
2022-07-31T12:43:52.721Z,98771.84
2022-07-31T12:46:23.335Z,98769.28
2022-07-31T12:48:53.072Z,98763.66
2022-07-31T12:51:45.439Z,98762.94
2022-07-31T12:54:12.291Z,98762.94
2022-07-31T12:56:42.414Z,98756.28
2022-07-31T12:59:14.707Z,98757.28
2022-07-31T16:03:51.135Z,98670.47
2022-07-31T16:06:28.185Z,98667.66
2022-07-31T16:09:01.460Z,98659.59
2022-07-31T16:12:03.757Z,98672.13
2022-07-31T16:14:20.093Z,98669.63
2022-07-31T16:16:49.420Z,98669.16
2022-07-31T16:19:25.132Z,98665.63
2022-07-31T16:21:55.239Z,98657.41
2022-07-31T16:24:25.123Z,98661.41
2022-07-31T16:26:54.463Z,98666.03
2022-07-31T16:29:57.753Z,98666.72
2022-07-31T16:32:14.332Z,98661.97
2022-07-31T16:34:51.661Z,98659.00
2022-07-31T16:37:22.037Z,98654.56
2022-07-31T16:40:28.175Z,98650.78
2022-07-31T16:43:00.949Z,98661.72
2022-07-31T16:45:30.865Z,98658.66
2022-07-31T16:48:00.486Z,98665.63
2022-07-31T16:50:32.513Z,98654.66
2022-07-31T16:53:01.812Z,98654.44
2022-07-31T16:55:46.134Z,98658.66
2022-07-31T16:58:24.810Z,98662.88
2022-07-31T17:00:54.397Z,98663.94
2022-07-31T17:03:59.342Z,98652.41
2022-07-31T17:06:16.711Z,98658.41
2022-07-31T17:08:46.391Z,98654.63
2022-07-31T17:11:15.717Z,98669.47
2022-07-31T17:13:45.086Z,98662.06
2022-07-31T17:16:14.376Z,98664.84
2022-07-31T17:18:43.673Z,98659.25
2022-07-31T17:21:25.726Z,98665.63
2022-07-31T17:24:00.249Z,98652.28
2022-07-31T17:26:29.608Z,98660.91
2022-07-31T17:28:58.892Z,98658.84
2022-07-31T17:31:28.225Z,98664.75
2022-07-31T17:33:59.961Z,98662.66
2022-07-31T17:36:34.009Z,98665.75
2022-07-31T17:39:03.358Z,98665.22
2022-07-31T17:41:32.707Z,98666.41
2022-07-31T17:44:02.106Z,98677.78
2022-07-31T17:46:36.267Z,98668.56
2022-07-31T17:49:08.310Z,98677.88
2022-07-31T17:51:40.329Z,98675.56
2022-07-31T17:54:28.985Z,98683.28
2022-07-31T17:56:58.430Z,98679.56
2022-07-31T17:59:27.756Z,98693.34
2022-07-31T18:02:00.560Z,98692.31
2022-07-31T18:04:30.488Z,98692.28
2022-07-31T18:07:04.339Z,98690.84
2022-07-31T18:09:35.206Z,98699.97
2022-07-31T18:12:06.034Z,98694.06
2022-07-31T18:14:35.576Z,98703.47
2022-07-31T18:17:04.972Z,98703.81
2022-07-31T18:19:34.288Z,98698.78
2022-07-31T18:22:06.574Z,98716.97
2022-07-31T18:24:36.201Z,98718.75
2022-07-31T18:27:05.602Z,98723.25
2022-07-31T18:29:34.952Z,98720.78
2022-07-31T18:32:04.578Z,98718.53
2022-07-31T18:34:34.040Z,98714.47
2022-07-31T18:37:05.954Z,98719.22
2022-07-31T18:39:48.756Z,98724.63
2022-07-31T18:42:18.875Z,98728.91
2022-07-31T18:44:48.273Z,98727.25
2022-07-31T18:47:17.627Z,98725.00
2022-07-31T18:50:59.456Z,98722.38
2022-07-31T18:52:41.300Z,98726.81
2022-07-31T18:55:11.404Z,98725.75
2022-07-31T18:57:40.733Z,98730.69
2022-07-31T19:00:11.191Z,98729.78
2022-07-31T19:02:40.558Z,98737.41
2022-07-31T19:05:13.619Z,98723.25
2022-07-31T19:07:53.523Z,98733.44
2022-07-31T19:10:31.744Z,98737.25
2022-07-31T19:13:01.901Z,98736.25
2022-07-31T19:15:31.219Z,98737.97
2022-07-31T19:18:02.962Z,98738.19
2022-07-31T19:20:58.925Z,98744.56
2022-07-31T19:23:35.077Z,98747.38
2022-07-31T19:26:04.885Z,98747.19
2022-07-31T19:28:34.282Z,98743.97
2022-07-31T19:31:03.621Z,98747.78
2022-07-31T19:33:32.996Z,98740.56
2022-07-31T19:36:03.378Z,98751.03
2022-07-31T19:38:36.022Z,98752.06
2022-07-31T19:41:05.478Z,98757.88
2022-07-31T19:43:35.822Z,98751.97
2022-07-31T19:46:11.204Z,98763.50
2022-07-31T19:48:41.655Z,98759.38
2022-07-31T19:51:11.261Z,98769.00
2022-07-31T19:53:43.321Z,98769.91
2022-07-31T19:56:19.728Z,98774.00
2022-07-31T19:58:50.507Z,98780.94
2022-07-31T20:01:20.582Z,98780.22
2022-07-31T20:03:50.453Z,98779.81
2022-07-31T20:06:19.835Z,98782.63
2022-07-31T20:08:51.801Z,98790.53
2022-07-31T20:11:21.182Z,98790.31
2022-07-31T20:13:50.555Z,98785.34
2022-07-31T20:16:20.019Z,98795.16
2022-07-31T20:18:49.834Z,98812.41
2022-07-31T20:21:19.287Z,98803.84
2022-07-31T20:23:48.918Z,98803.59
2022-07-31T20:26:21.721Z,98799.59
2022-07-31T20:28:51.051Z,98806.75
2022-07-31T20:31:21.578Z,98803.03
2022-07-31T20:33:57.384Z,98798.72
2022-07-31T20:36:27.343Z,98805.03
2022-07-31T20:38:58.682Z,98803.41
2022-07-31T20:41:30.731Z,98799.25
2022-07-31T20:44:00.435Z,98805.47
2022-07-31T20:46:30.361Z,98806.59
2022-07-31T20:49:00.663Z,98812.03
2022-07-31T20:51:30.086Z,98802.88
2022-07-31T20:53:59.496Z,98805.94
2022-07-31T20:56:32.181Z,98812.16
2022-07-31T20:59:01.504Z,98803.22
2022-07-31T21:01:30.867Z,98802.84
2022-07-31T21:04:01.745Z,98805.53
2022-07-31T21:06:32.575Z,98812.88
2022-07-31T21:09:04.606Z,98811.53
2022-07-31T21:11:36.821Z,98811.03
2022-07-31T21:14:06.193Z,98810.00
2022-07-31T21:16:35.508Z,98809.06
2022-07-31T21:19:04.874Z,98814.03
2022-07-31T21:21:34.191Z,98813.00
2022-07-31T21:24:03.803Z,98825.19
2022-07-31T21:26:36.772Z,98822.25
2022-07-31T21:29:09.069Z,98829.31
2022-07-31T21:31:38.810Z,98826.94
2022-07-31T21:34:18.827Z,98824.53
2022-07-31T21:36:50.304Z,98827.53
2022-07-31T21:39:20.415Z,98832.41
2022-07-31T21:41:52.744Z,98842.97
2022-07-31T21:44:22.466Z,98840.63
2022-07-31T21:46:57.468Z,98839.59
2022-07-31T21:49:34.274Z,98834.50
2022-07-31T21:52:04.232Z,98840.47
2022-07-31T21:54:33.801Z,98837.50
2022-07-31T21:57:05.841Z,98843.50
2022-07-31T21:59:35.191Z,98853.28
2022-07-31T22:02:04.620Z,98848.19
2022-07-31T22:04:34.858Z,98859.28
2022-07-31T22:07:16.682Z,98856.66
2022-07-31T22:09:45.982Z,98862.84
2022-07-31T22:12:17.888Z,98866.66
2022-07-31T22:17:24.294Z,98869.63
2022-07-31T22:20:01.185Z,98871.06
2022-07-31T22:22:31.144Z,98874.59
2022-07-31T22:25:00.783Z,98874.09
2022-07-31T22:27:45.444Z,98880.31
2022-07-31T22:30:16.093Z,98889.50
2022-07-31T22:32:47.610Z,98889.03
2022-07-31T22:35:20.049Z,98886.06
2022-07-31T22:37:52.850Z,98892.03
2022-07-31T22:40:23.146Z,98889.63
2022-07-31T22:42:57.533Z,98890.19
2022-07-31T22:45:27.836Z,98888.28
2022-07-31T22:47:57.838Z,98899.34
2022-07-31T22:50:27.620Z,98890.97
2022-07-31T22:52:57.373Z,98892.31
2022-07-31T22:55:26.931Z,98889.84
2022-07-31T22:57:58.985Z,98888.78
2022-07-31T23:00:28.408Z,98899.63
2022-07-31T23:02:57.872Z,98899.91
2022-07-31T23:05:27.361Z,98897.25
2022-07-31T23:07:56.717Z,98901.56
2022-07-31T23:10:26.150Z,98894.03
2022-07-31T23:12:55.511Z,98900.25
2022-07-31T23:15:27.481Z,98900.50
2022-07-31T23:17:57.015Z,98908.03
2022-07-31T23:20:26.375Z,98914.22
2022-07-31T23:22:55.750Z,98909.66
2022-07-31T23:25:25.127Z,98910.22
2022-07-31T23:27:54.457Z,98906.19
2022-07-31T23:30:24.375Z,98907.00
2022-07-31T23:32:56.363Z,98903.25
2022-07-31T23:35:25.685Z,98906.75
2022-07-31T23:37:54.973Z,98906.22
2022-07-31T23:40:24.408Z,98911.34
2022-07-31T23:42:51.119Z,98907.84
2022-07-31T23:45:20.515Z,98905.69
2022-07-31T23:47:50.945Z,98903.53
2022-07-31T23:50:22.967Z,98905.47
2022-07-31T23:52:52.447Z,98903.31
2022-07-31T23:55:21.892Z,98904.09
2022-07-31T23:57:53.624Z,98901.97
